Time;durP1;ratioP1;P1;durP2;ratioP2;P2;SDS_P1;SDS_P2;PMS_P1;PMS_P2;Temp;Humidity;BMP_temperature;BMP_pressure;BME280_temperature;BME280_humidity;BME280_pressure;Samples;Min_cycle;Max_cycle;Signal;HPM_P1;HPM_P2
2023/08/02 00:00:17;;;;;;;7.70;2.17;;;;;;;;;;5068531;28;20044;-56
2023/08/02 00:02:44;;;;;;;6.55;2.83;;;;;;;;;;5067204;28;20510;-56
2023/08/02 00:05:10;;;;;;;3.35;1.92;;;;;;;;;;5048186;28;20044;-56
2023/08/02 00:07:37;;;;;;;9.30;2.05;;;;;;;;;;5049791;28;20082;-56
2023/08/02 00:10:03;;;;;;;5.65;2.40;;;;;;;;;;5050455;28;20128;-55
2023/08/02 00:12:30;;;;;;;6.22;1.60;;;;;;;;;;5062667;28;20037;-55
2023/08/02 00:14:56;;;;;;;4.38;1.90;;;;;;;;;;5067508;28;20094;-55
2023/08/02 00:17:23;;;;;;;4.95;2.15;;;;;;;;;;5067674;28;20127;-55
2023/08/02 00:19:49;;;;;;;5.65;2.30;;;;;;;;;;5068345;28;20056;-55
2023/08/02 00:22:15;;;;;;;7.32;2.10;;;;;;;;;;5068360;28;20056;-55
2023/08/02 00:24:42;;;;;;;4.60;2.58;;;;;;;;;;5067636;28;20044;-55
2023/08/02 00:27:08;;;;;;;7.85;2.30;;;;;;;;;;5067840;28;20427;-55
2023/08/02 00:29:35;;;;;;;6.22;1.75;;;;;;;;;;5068395;28;20041;-55
2023/08/02 00:32:01;;;;;;;6.43;2.08;;;;;;;;;;5068279;28;20484;-56
2023/08/02 00:34:28;;;;;;;5.15;2.10;;;;;;;;;;5066465;28;20137;-55
2023/08/02 00:36:54;;;;;;;5.13;1.95;;;;;;;;;;5068109;28;20068;-55
2023/08/02 00:39:23;;;;;;;4.55;1.88;;;;;;;;;;5066634;28;20159;-55
2023/08/02 00:41:50;;;;;;;6.07;1.92;;;;;;;;;;5064519;28;20045;-56
2023/08/02 00:44:16;;;;;;;5.25;1.80;;;;;;;;;;5062922;28;20036;-56
2023/08/02 00:46:43;;;;;;;5.90;2.17;;;;;;;;;;5067621;28;20494;-56
2023/08/02 00:49:10;;;;;;;4.75;2.28;;;;;;;;;;5067499;28;20054;-56
2023/08/02 00:51:36;;;;;;;12.70;1.95;;;;;;;;;;5068274;28;20439;-56
2023/08/02 00:54:05;;;;;;;3.45;1.80;;;;;;;;;;5067921;28;20044;-56
2023/08/02 00:56:31;;;;;;;8.15;1.83;;;;;;;;;;5067902;28;20052;-56
2023/08/02 00:58:58;;;;;;;6.30;2.92;;;;;;;;;;5067684;28;20139;-56
2023/08/02 01:01:25;;;;;;;8.88;2.03;;;;;;;;;;5062642;28;20076;-56
2023/08/02 01:03:52;;;;;;;5.03;2.10;;;;;;;;;;5067550;28;20055;-57
2023/08/02 01:06:18;;;;;;;6.43;2.97;;;;;;;;;;5067102;28;20044;-56
2023/08/02 01:08:47;;;;;;;8.65;2.42;;;;;;;;;;5067773;28;20476;-56
2023/08/02 01:11:17;;;;;;;7.35;2.20;;;;;;;;;;5068526;28;20087;-56
2023/08/02 01:13:47;;;;;;;5.95;2.53;;;;;;;;;;5067672;28;20075;-55
2023/08/02 01:16:15;;;;;;;4.72;2.25;;;;;;;;;;5067229;28;20040;-56
2023/08/02 01:18:42;;;;;;;7.45;2.50;;;;;;;;;;5067508;28;20143;-55
2023/08/02 01:21:08;;;;;;;4.63;1.90;;;;;;;;;;5063572;28;20127;-55
2023/08/02 01:23:35;;;;;;;6.95;2.78;;;;;;;;;;5068216;28;20098;-56
2023/08/02 01:26:02;;;;;;;4.80;2.47;;;;;;;;;;5067708;28;20053;-56
2023/08/02 01:28:31;;;;;;;10.18;2.40;;;;;;;;;;5068207;28;20122;-56
2023/08/02 01:30:59;;;;;;;4.28;2.15;;;;;;;;;;5067860;28;20045;-56
2023/08/02 01:33:26;;;;;;;8.48;2.72;;;;;;;;;;5067871;28;20472;-55
2023/08/02 01:35:53;;;;;;;7.28;2.75;;;;;;;;;;5067498;28;20041;-55
2023/08/02 01:38:19;;;;;;;5.07;2.47;;;;;;;;;;5068156;28;20048;-56
2023/08/02 01:40:46;;;;;;;6.43;2.28;;;;;;;;;;5067800;28;20091;-56
2023/08/02 01:43:12;;;;;;;8.02;2.97;;;;;;;;;;5067570;28;20056;-56
2023/08/02 01:45:39;;;;;;;5.40;2.42;;;;;;;;;;5063237;28;20056;-56
2023/08/02 01:48:05;;;;;;;4.25;2.38;;;;;;;;;;5055838;28;20067;-56
2023/08/02 01:50:32;;;;;;;8.93;2.75;;;;;;;;;;5067462;28;20373;-56
2023/08/02 01:52:58;;;;;;;5.75;2.28;;;;;;;;;;5067438;28;20128;-55
2023/08/02 01:55:25;;;;;;;5.30;3.33;;;;;;;;;;5069061;28;20208;-56
2023/08/02 01:57:51;;;;;;;4.18;2.60;;;;;;;;;;5070637;28;20043;-56
2023/08/02 02:00:18;;;;;;;6.82;2.60;;;;;;;;;;5071335;28;20044;-56
2023/08/02 02:02:44;;;;;;;6.25;2.70;;;;;;;;;;5067851;28;20060;-56
2023/08/02 02:05:11;;;;;;;5.53;2.20;;;;;;;;;;5070834;28;20070;-56
2023/08/02 02:07:37;;;;;;;5.70;2.63;;;;;;;;;;5070333;28;20135;-56
2023/08/02 02:10:04;;;;;;;6.20;2.47;;;;;;;;;;5052771;28;20040;-56
2023/08/02 02:12:30;;;;;;;4.95;2.60;;;;;;;;;;5070647;28;20453;-56
2023/08/02 02:14:57;;;;;;;4.75;2.67;;;;;;;;;;5052140;28;20106;-56
2023/08/02 02:17:23;;;;;;;5.32;2.67;;;;;;;;;;5070418;28;20044;-57
2023/08/02 02:19:50;;;;;;;6.45;2.35;;;;;;;;;;5067609;28;20202;-56
2023/08/02 02:22:16;;;;;;;7.05;2.72;;;;;;;;;;5055117;28;20068;-56
2023/08/02 02:24:43;;;;;;;9.05;2.85;;;;;;;;;;5057540;28;20045;-56
2023/08/02 02:27:09;;;;;;;5.75;2.35;;;;;;;;;;5073954;28;20044;-56
2023/08/02 02:29:36;;;;;;;8.32;2.55;;;;;;;;;;5068903;28;20041;-56
2023/08/02 02:32:02;;;;;;;12.13;2.70;;;;;;;;;;5069190;28;20102;-56
2023/08/02 02:34:29;;;;;;;4.40;1.73;;;;;;;;;;5069016;28;20056;-56
2023/08/02 02:36:56;;;;;;;8.48;2.70;;;;;;;;;;5070409;28;20476;-56
2023/08/02 02:39:23;;;;;;;6.50;2.53;;;;;;;;;;5071929;28;20560;-57
2023/08/02 02:41:49;;;;;;;4.30;3.15;;;;;;;;;;5071002;28;20127;-56
2023/08/02 02:44:16;;;;;;;3.83;2.30;;;;;;;;;;5069398;28;20613;-56
2023/08/02 02:46:42;;;;;;;12.52;2.45;;;;;;;;;;5069950;28;20143;-56
2023/08/02 02:49:09;;;;;;;3.47;2.10;;;;;;;;;;5070387;28;20441;-56
2023/08/02 02:51:36;;;;;;;10.13;2.53;;;;;;;;;;5051729;28;20049;-56
2023/08/02 02:54:02;;;;;;;3.30;1.98;;;;;;;;;;5069253;28;20784;-56
2023/08/02 02:56:28;;;;;;;5.45;2.40;;;;;;;;;;5069129;28;20045;-56
2023/08/02 02:58:55;;;;;;;5.72;1.92;;;;;;;;;;5070139;28;20052;-55
2023/08/02 03:01:21;;;;;;;9.35;2.60;;;;;;;;;;5069103;28;20078;-56
2023/08/02 03:03:48;;;;;;;4.97;2.50;;;;;;;;;;5070559;28;20483;-55
2023/08/02 03:06:14;;;;;;;3.42;2.13;;;;;;;;;;5069192;28;20084;-56
2023/08/02 03:08:41;;;;;;;3.20;2.20;;;;;;;;;;5069589;28;20607;-56
2023/08/02 03:11:07;;;;;;;6.80;2.70;;;;;;;;;;5068209;28;20049;-55
2023/08/02 03:13:34;;;;;;;7.85;2.78;;;;;;;;;;5064750;28;20040;-55
2023/08/02 03:16:00;;;;;;;7.20;2.33;;;;;;;;;;5069348;28;20127;-56
2023/08/02 03:18:26;;;;;;;14.48;4.25;;;;;;;;;;5051271;28;20456;-55
2023/08/02 03:20:53;;;;;;;7.63;3.72;;;;;;;;;;5069497;28;20076;-55
2023/08/02 03:23:19;;;;;;;4.90;2.92;;;;;;;;;;5051854;28;20080;-55
2023/08/02 03:25:46;;;;;;;6.18;2.67;;;;;;;;;;5068933;28;20840;-55
2023/08/02 03:28:13;;;;;;;7.22;2.53;;;;;;;;;;5068900;28;20523;-55
2023/08/02 03:30:39;;;;;;;9.48;3.70;;;;;;;;;;5068271;28;20043;-55
2023/08/02 03:33:06;;;;;;;9.18;3.08;;;;;;;;;;5068541;28;20047;-56
2023/08/02 03:35:32;;;;;;;4.43;3.10;;;;;;;;;;5068176;28;20507;-55
2023/08/02 03:37:59;;;;;;;9.95;3.85;;;;;;;;;;5051664;28;20079;-55
2023/08/02 03:40:25;;;;;;;7.95;3.40;;;;;;;;;;5067203;28;20055;-55
2023/08/02 03:42:52;;;;;;;6.13;3.05;;;;;;;;;;5067852;28;20076;-55
2023/08/02 03:45:18;;;;;;;6.45;2.83;;;;;;;;;;5069439;28;20109;-55
2023/08/02 03:47:44;;;;;;;5.10;3.03;;;;;;;;;;5068836;28;20087;-55
2023/08/02 03:50:11;;;;;;;7.80;3.10;;;;;;;;;;5052086;28;20052;-55
2023/08/02 03:52:37;;;;;;;4.57;2.83;;;;;;;;;;5069026;28;20059;-55
2023/08/02 03:55:04;;;;;;;11.45;3.40;;;;;;;;;;5068397;28;20053;-56
2023/08/02 03:57:31;;;;;;;6.82;2.83;;;;;;;;;;5071132;28;20109;-55
2023/08/02 03:59:57;;;;;;;11.05;2.63;;;;;;;;;;5073083;28;20071;-55
2023/08/02 04:02:23;;;;;;;5.38;2.88;;;;;;;;;;5068359;28;20080;-55
2023/08/02 04:04:50;;;;;;;7.45;3.10;;;;;;;;;;5065430;28;20131;-55
2023/08/02 04:07:17;;;;;;;5.05;3.22;;;;;;;;;;5068720;28;20113;-55
2023/08/02 04:09:43;;;;;;;10.68;4.05;;;;;;;;;;5068075;28;20045;-55
2023/08/02 04:12:09;;;;;;;17.17;4.13;;;;;;;;;;5050564;28;20064;-55
2023/08/02 04:14:36;;;;;;;5.68;2.95;;;;;;;;;;5067047;28;20040;-55
2023/08/02 04:17:02;;;;;;;5.35;3.13;;;;;;;;;;5068184;28;20572;-55
2023/08/02 04:19:29;;;;;;;8.43;3.92;;;;;;;;;;5068307;28;20068;-55
2023/08/02 04:21:55;;;;;;;6.93;2.47;;;;;;;;;;5068663;28;20048;-55
2023/08/02 04:24:22;;;;;;;5.47;3.38;;;;;;;;;;5051100;28;20056;-55
2023/08/02 04:26:48;;;;;;;6.97;3.33;;;;;;;;;;5068396;28;20076;-55
2023/08/02 04:29:15;;;;;;;7.65;3.83;;;;;;;;;;5060420;28;20096;-55
2023/08/02 04:31:41;;;;;;;9.57;3.60;;;;;;;;;;5068765;28;20080;-55
2023/08/02 04:34:08;;;;;;;8.90;3.65;;;;;;;;;;5068674;28;20048;-55
2023/08/02 04:36:34;;;;;;;4.53;2.80;;;;;;;;;;5067163;28;20128;-55
2023/08/02 04:39:03;;;;;;;8.70;3.08;;;;;;;;;;5067510;28;20488;-55
2023/08/02 04:41:30;;;;;;;5.75;2.47;;;;;;;;;;5068115;28;20052;-55
2023/08/02 04:43:56;;;;;;;9.68;2.85;;;;;;;;;;5068312;28;20142;-55
2023/08/02 04:46:24;;;;;;;6.40;3.13;;;;;;;;;;5066872;28;20045;-55
2023/08/02 04:48:51;;;;;;;5.63;3.00;;;;;;;;;;5061957;28;20136;-55
2023/08/02 04:51:17;;;;;;;4.35;3.17;;;;;;;;;;5067457;28;20531;-55
2023/08/02 04:53:47;;;;;;;5.90;2.90;;;;;;;;;;5066415;28;20055;-55
2023/08/02 04:56:14;;;;;;;9.30;2.92;;;;;;;;;;5067727;28;20051;-55
2023/08/02 04:58:41;;;;;;;8.50;2.75;;;;;;;;;;5068133;28;20127;-55
2023/08/02 05:01:08;;;;;;;8.55;3.10;;;;;;;;;;5051567;28;20107;-55
2023/08/02 05:03:35;;;;;;;5.43;2.47;;;;;;;;;;5064753;28;20056;-55
2023/08/02 05:06:02;;;;;;;4.82;2.45;;;;;;;;;;5063997;28;20143;-55
2023/08/02 05:08:29;;;;;;;10.25;3.00;;;;;;;;;;5067926;28;20052;-55
2023/08/02 05:10:56;;;;;;;5.57;2.33;;;;;;;;;;5067700;28;20424;-55
2023/08/02 05:13:23;;;;;;;7.40;2.42;;;;;;;;;;5067217;28;20536;-55
2023/08/02 05:15:49;;;;;;;6.03;2.30;;;;;;;;;;5067620;28;20552;-55
2023/08/02 05:18:16;;;;;;;5.43;3.28;;;;;;;;;;5050227;28;20041;-55
2023/08/02 05:20:42;;;;;;;7.28;2.97;;;;;;;;;;5066766;28;20516;-55
2023/08/02 05:23:09;;;;;;;8.80;2.78;;;;;;;;;;5065195;28;20052;-55
2023/08/02 05:25:35;;;;;;;8.07;2.65;;;;;;;;;;5067833;28;20082;-55
2023/08/02 05:28:02;;;;;;;8.48;2.40;;;;;;;;;;5067505;28;20490;-55
2023/08/02 05:30:29;;;;;;;4.30;2.42;;;;;;;;;;5070623;28;20160;-55
2023/08/02 05:32:56;;;;;;;7.68;2.42;;;;;;;;;;5071729;28;20068;-55
2023/08/02 05:35:23;;;;;;;5.80;2.35;;;;;;;;;;5068207;28;20049;-55
2023/08/02 05:37:50;;;;;;;9.15;3.40;;;;;;;;;;5064903;28;20368;-55
2023/08/02 05:40:16;;;;;;;3.72;2.10;;;;;;;;;;5071850;28;20071;-55
2023/08/02 05:42:43;;;;;;;4.70;3.40;;;;;;;;;;5071154;28;20129;-56
2023/08/02 05:45:10;;;;;;;9.75;2.33;;;;;;;;;;5069621;28;20040;-56
2023/08/02 05:47:36;;;;;;;6.57;2.00;;;;;;;;;;5071606;28;20091;-56
2023/08/02 05:50:03;;;;;;;6.07;2.70;;;;;;;;;;5071207;28;20040;-56
2023/08/02 05:52:29;;;;;;;9.55;2.70;;;;;;;;;;5070977;28;20470;-56
2023/08/02 05:54:56;;;;;;;11.75;2.15;;;;;;;;;;5067435;28;20135;-56
2023/08/02 05:57:22;;;;;;;6.13;2.47;;;;;;;;;;5071349;28;20118;-56
2023/08/02 05:59:49;;;;;;;4.10;2.05;;;;;;;;;;5053025;28;20074;-56
2023/08/02 06:02:16;;;;;;;9.45;2.53;;;;;;;;;;5071523;28;20106;-56
2023/08/02 06:04:43;;;;;;;3.80;2.30;;;;;;;;;;5066709;28;20150;-56
2023/08/02 06:07:10;;;;;;;5.55;2.88;;;;;;;;;;5069111;28;20044;-56
2023/08/02 06:09:36;;;;;;;7.53;2.30;;;;;;;;;;5070045;28;20395;-56
2023/08/02 06:12:03;;;;;;;5.78;3.20;;;;;;;;;;5070229;28;20048;-56
2023/08/02 06:14:29;;;;;;;6.05;2.30;;;;;;;;;;5068914;28;20123;-56
2023/08/02 06:16:56;;;;;;;9.25;2.20;;;;;;;;;;5070887;28;20486;-56
2023/08/02 06:19:22;;;;;;;6.43;1.85;;;;;;;;;;5070410;28;20045;-55
2023/08/02 06:21:48;;;;;;;7.18;2.45;;;;;;;;;;5062284;28;20445;-55
2023/08/02 06:24:15;;;;;;;8.52;2.15;;;;;;;;;;5067410;28;20052;-55
2023/08/02 06:26:41;;;;;;;4.97;2.33;;;;;;;;;;5070329;28;20080;-55
2023/08/02 06:29:11;;;;;;;6.65;2.53;;;;;;;;;;5052749;28;20048;-56
2023/08/02 06:31:37;;;;;;;10.40;2.65;;;;;;;;;;5052644;28;20052;-55
2023/08/02 06:34:04;;;;;;;4.63;1.90;;;;;;;;;;5070689;28;20490;-56
2023/08/02 06:36:30;;;;;;;5.35;2.25;;;;;;;;;;5071370;28;20442;-55
2023/08/02 06:38:57;;;;;;;9.70;2.63;;;;;;;;;;5075079;28;20132;-57
2023/08/02 06:41:23;;;;;;;5.50;1.95;;;;;;;;;;5052599;28;20067;-56
2023/08/02 06:43:50;;;;;;;4.30;1.92;;;;;;;;;;5056032;28;20048;-56
2023/08/02 06:46:16;;;;;;;3.85;1.85;;;;;;;;;;5069595;28;20658;-56
2023/08/02 06:48:43;;;;;;;3.95;2.30;;;;;;;;;;5070319;28;20147;-55
2023/08/02 06:51:12;;;;;;;6.35;2.22;;;;;;;;;;5070410;28;20080;-56
2023/08/02 06:53:39;;;;;;;7.40;2.33;;;;;;;;;;5052554;28;20048;-56
2023/08/02 06:56:16;;;;;;;5.38;1.83;;;;;;;;;;5068201;28;20040;-55
2023/08/02 06:58:43;;;;;;;6.95;1.77;;;;;;;;;;5063956;28;20072;-55
2023/08/02 07:01:20;;;;;;;8.15;2.67;;;;;;;;;;5049333;28;20051;-57
2023/08/02 07:03:46;;;;;;;4.93;1.95;;;;;;;;;;5067219;28;20281;-56
2023/08/02 07:06:14;;;;;;;4.50;1.73;;;;;;;;;;5067944;28;20037;-57
2023/08/02 07:08:41;;;;;;;4.78;1.92;;;;;;;;;;5057014;28;20447;-56
2023/08/02 07:11:07;;;;;;;5.63;2.10;;;;;;;;;;5066564;28;20044;-56
2023/08/02 07:13:43;;;;;;;7.65;2.13;;;;;;;;;;5066239;28;20141;-57
2023/08/02 07:16:10;;;;;;;5.25;2.53;;;;;;;;;;5067731;28;20055;-56
2023/08/02 07:18:37;;;;;;;6.97;2.83;;;;;;;;;;5068368;28;20373;-56
2023/08/02 07:21:06;;;;;;;4.43;1.67;;;;;;;;;;5065162;28;20167;-58
2023/08/02 07:23:33;;;;;;;4.45;1.80;;;;;;;;;;5068385;28;20044;-56
2023/08/02 07:26:00;;;;;;;5.72;2.20;;;;;;;;;;5066009;28;20047;-56
2023/08/02 07:28:26;;;;;;;8.90;2.35;;;;;;;;;;5066798;28;20580;-56
2023/08/02 07:30:52;;;;;;;7.55;1.58;;;;;;;;;;5067521;28;20127;-56
2023/08/02 07:33:19;;;;;;;4.78;1.70;;;;;;;;;;5067706;28;20045;-56
2023/08/02 07:35:46;;;;;;;6.22;1.52;;;;;;;;;;5064069;28;20346;-56
2023/08/02 07:38:16;;;;;;;5.68;1.80;;;;;;;;;;5066007;28;20090;-56
2023/08/02 07:40:43;;;;;;;5.30;1.23;;;;;;;;;;5068439;28;20140;-57
2023/08/02 07:43:09;;;;;;;8.35;1.60;;;;;;;;;;5065471;28;20052;-55
2023/08/02 07:45:36;;;;;;;4.93;1.73;;;;;;;;;;5068113;28;20055;-57
2023/08/02 07:48:03;;;;;;;4.63;1.75;;;;;;;;;;5068445;28;20060;-56
2023/08/02 07:50:29;;;;;;;4.32;1.55;;;;;;;;;;5066340;28;20128;-56
2023/08/02 07:52:56;;;;;;;4.20;1.15;;;;;;;;;;5067479;28;20072;-57
2023/08/02 07:55:22;;;;;;;4.20;1.15;;;;;;;;;;5067684;28;20155;-56
2023/08/02 07:57:49;;;;;;;5.93;1.80;;;;;;;;;;5068391;28;20080;-56
2023/08/02 08:00:15;;;;;;;6.88;2.25;;;;;;;;;;5059740;28;20574;-56
2023/08/02 08:02:42;;;;;;;5.63;1.58;;;;;;;;;;5067849;28;20048;-56
2023/08/02 08:05:09;;;;;;;5.97;1.60;;;;;;;;;;5067289;28;20045;-57
2023/08/02 08:07:35;;;;;;;5.05;1.25;;;;;;;;;;5068083;28;20048;-57
2023/08/02 08:10:02;;;;;;;6.30;1.80;;;;;;;;;;5068114;28;20131;-56
2023/08/02 08:12:28;;;;;;;5.28;1.58;;;;;;;;;;5067247;28;20071;-56
2023/08/02 08:14:54;;;;;;;4.40;2.28;;;;;;;;;;5064314;28;20135;-56
2023/08/02 08:17:21;;;;;;;6.28;1.50;;;;;;;;;;5067592;28;20052;-56
2023/08/02 08:19:48;;;;;;;5.25;1.75;;;;;;;;;;5067298;28;20567;-56
2023/08/02 08:22:15;;;;;;;3.03;1.55;;;;;;;;;;5068236;28;20052;-56
2023/08/02 08:24:41;;;;;;;6.15;1.48;;;;;;;;;;5065938;28;20071;-56
2023/08/02 08:27:08;;;;;;;3.88;1.27;;;;;;;;;;5068060;28;20048;-56
2023/08/02 08:29:34;;;;;;;4.07;1.20;;;;;;;;;;5067178;28;20110;-56
2023/08/02 08:32:01;;;;;;;5.10;1.35;;;;;;;;;;5063737;28;20136;-55
2023/08/02 08:34:27;;;;;;;3.63;1.35;;;;;;;;;;5066729;28;20052;-56
2023/08/02 08:36:53;;;;;;;5.43;1.60;;;;;;;;;;5070730;28;20086;-55
2023/08/02 08:39:20;;;;;;;6.40;1.40;;;;;;;;;;5049923;28;20072;-55
2023/08/02 08:41:46;;;;;;;4.18;1.27;;;;;;;;;;5049938;28;20072;-55
2023/08/02 08:44:13;;;;;;;3.05;1.27;;;;;;;;;;5065934;28;20044;-57
2023/08/02 08:46:40;;;;;;;6.55;0.88;;;;;;;;;;5067056;28;20091;-55
2023/08/02 08:49:07;;;;;;;4.03;1.23;;;;;;;;;;5049894;28;20508;-55
2023/08/02 08:51:34;;;;;;;4.20;1.20;;;;;;;;;;5044296;28;20076;-56
2023/08/02 08:54:05;;;;;;;3.85;0.90;;;;;;;;;;5066949;28;20539;-56
2023/08/02 08:56:35;;;;;;;2.42;1.00;;;;;;;;;;5067481;28;20040;-56
2023/08/02 08:59:03;;;;;;;4.25;1.50;;;;;;;;;;5068028;28;20051;-56
2023/08/02 09:01:30;;;;;;;3.55;1.40;;;;;;;;;;5065388;28;20465;-56
2023/08/02 09:03:56;;;;;;;17.35;1.45;;;;;;;;;;5063808;28;20448;-55
2023/08/02 09:06:23;;;;;;;3.90;1.35;;;;;;;;;;5064851;28;20492;-56
2023/08/02 09:08:50;;;;;;;2.78;0.88;;;;;;;;;;5065382;28;20111;-56
2023/08/02 09:11:17;;;;;;;3.45;1.23;;;;;;;;;;5070991;28;20045;-55
2023/08/02 09:13:43;;;;;;;11.68;1.92;;;;;;;;;;5071330;28;20059;-56
2023/08/02 09:16:11;;;;;;;5.50;1.50;;;;;;;;;;5070540;28;20413;-56
2023/08/02 09:18:42;;;;;;;6.57;1.85;;;;;;;;;;5068529;28;20053;-56
2023/08/02 09:21:09;;;;;;;4.80;1.33;;;;;;;;;;5070642;28;20049;-56
2023/08/02 09:23:36;;;;;;;2.53;0.90;;;;;;;;;;5070217;28;20056;-56
2023/08/02 09:26:15;;;;;;;5.82;1.00;;;;;;;;;;5070544;28;20148;-56
2023/08/02 09:29:02;;;;;;;7.85;1.40;;;;;;;;;;5070820;28;20129;-56
2023/08/02 09:31:30;;;;;;;4.43;1.02;;;;;;;;;;5068291;28;20060;-56
2023/08/02 09:33:57;;;;;;;3.15;1.27;;;;;;;;;;5069890;28;20127;-56
2023/08/02 09:36:30;;;;;;;3.50;0.98;;;;;;;;;;5069823;28;20139;-57
2023/08/02 09:39:18;;;;;;;7.85;1.50;;;;;;;;;;5068804;28;20049;-57
2023/08/02 09:41:45;;;;;;;5.68;2.25;;;;;;;;;;5064332;28;20369;-56
2023/08/02 09:44:26;;;;;;;6.75;1.60;;;;;;;;;;5043492;28;20179;-57
2023/08/02 09:46:53;;;;;;;5.40;1.38;;;;;;;;;;5065663;28;20063;-57
2023/08/02 09:49:21;;;;;;;5.88;1.30;;;;;;;;;;5070551;28;20051;-57
2023/08/02 09:51:48;;;;;;;5.53;0.98;;;;;;;;;;5068105;28;20640;-58
2023/08/02 09:54:15;;;;;;;4.50;1.25;;;;;;;;;;5045917;28;20044;-58
2023/08/02 09:56:42;;;;;;;4.88;1.45;;;;;;;;;;5069593;28;20048;-57
2023/08/02 09:59:09;;;;;;;2.50;1.00;;;;;;;;;;5068513;28;20049;-57
2023/08/02 10:01:36;;;;;;;2.90;0.80;;;;;;;;;;5068941;28;20401;-56
2023/08/02 10:04:05;;;;;;;4.57;1.20;;;;;;;;;;5068736;28;20049;-58
2023/08/02 10:06:34;;;;;;;3.35;1.40;;;;;;;;;;5052052;28;20380;-58
2023/08/02 10:09:05;;;;;;;2.97;1.10;;;;;;;;;;5068200;28;20089;-58
2023/08/02 10:11:38;;;;;;;4.60;1.02;;;;;;;;;;5069854;28;20108;-57
2023/08/02 10:14:06;;;;;;;4.43;1.05;;;;;;;;;;5068841;28;20546;-58
2023/08/02 10:16:32;;;;;;;2.47;1.17;;;;;;;;;;5049491;28;20063;-58
2023/08/02 10:19:01;;;;;;;2.30;0.80;;;;;;;;;;5070124;28;20041;-58
2023/08/02 10:21:30;;;;;;;4.32;1.35;;;;;;;;;;5069791;28;20044;-58
2023/08/02 10:23:58;;;;;;;3.97;1.10;;;;;;;;;;5051817;28;20056;-58
2023/08/02 10:26:25;;;;;;;5.63;1.52;;;;;;;;;;5069250;28;20399;-59
2023/08/02 10:28:52;;;;;;;5.90;1.23;;;;;;;;;;5069933;28;20131;-57
2023/08/02 10:31:19;;;;;;;2.88;1.02;;;;;;;;;;5068631;28;20055;-58
2023/08/02 10:33:45;;;;;;;4.57;1.15;;;;;;;;;;5067228;28;20135;-57
2023/08/02 10:36:12;;;;;;;3.78;1.20;;;;;;;;;;5068202;28;20106;-57
2023/08/02 10:38:39;;;;;;;2.92;0.93;;;;;;;;;;5067157;28;20401;-58
2023/08/02 10:41:07;;;;;;;2.92;1.10;;;;;;;;;;5067842;28;20072;-57
2023/08/02 10:43:34;;;;;;;3.00;1.30;;;;;;;;;;5062961;28;20080;-58
2023/08/02 10:46:32;;;;;;;3.40;1.83;;;;;;;;;;5065087;28;20048;-56
2023/08/02 10:49:10;;;;;;;3.95;1.20;;;;;;;;;;5063783;28;20075;-58
2023/08/02 10:51:37;;;;;;;2.28;1.17;;;;;;;;;;5068972;28;20049;-58
2023/08/02 10:54:10;;;;;;;2.70;1.30;;;;;;;;;;5069683;28;20141;-59
2023/08/02 10:56:53;;;;;;;3.22;1.52;;;;;;;;;;5074078;28;20109;-58
2023/08/02 10:59:23;;;;;;;10.63;1.77;;;;;;;;;;5075339;28;20387;-58
2023/08/02 11:02:08;;;;;;;4.32;1.38;;;;;;;;;;5068745;28;20098;-58
2023/08/02 11:04:37;;;;;;;3.33;1.30;;;;;;;;;;5066505;28;20052;-57
2023/08/02 11:07:11;;;;;;;13.05;2.20;;;;;;;;;;5068606;28;20153;-61
2023/08/02 11:09:37;;;;;;;3.10;1.17;;;;;;;;;;5068394;28;20133;-61
2023/08/02 11:12:10;;;;;;;9.93;1.70;;;;;;;;;;5069289;28;20127;-60
2023/08/02 11:14:41;;;;;;;3.80;1.88;;;;;;;;;;5066221;28;20117;-60
2023/08/02 11:17:08;;;;;;;3.33;1.70;;;;;;;;;;5066362;28;20137;-59
2023/08/02 11:19:38;;;;;;;3.47;1.80;;;;;;;;;;5067109;28;20100;-60
2023/08/02 11:22:06;;;;;;;3.13;1.70;;;;;;;;;;5065562;28;20052;-58
2023/08/02 11:24:43;;;;;;;7.50;2.20;;;;;;;;;;5067948;28;20049;-60
2023/08/02 11:27:16;;;;;;;6.88;1.73;;;;;;;;;;5067223;28;20119;-60
2023/08/02 11:29:55;;;;;;;2.67;1.38;;;;;;;;;;5066478;28;20076;-60
2023/08/02 11:32:22;;;;;;;5.93;2.15;;;;;;;;;;5060729;28;20135;-60
2023/08/02 11:34:48;;;;;;;4.18;2.17;;;;;;;;;;5067804;28;20052;-60
2023/08/02 11:37:15;;;;;;;4.07;2.10;;;;;;;;;;5065401;28;20059;-60
2023/08/02 11:39:51;;;;;;;4.13;1.50;;;;;;;;;;5062035;28;20123;-60
2023/08/02 11:42:45;;;;;;;4.53;2.47;;;;;;;;;;5059436;28;20044;-61
2023/08/02 11:45:12;;;;;;;2.47;1.67;;;;;;;;;;5067414;28;20048;-59
2023/08/02 11:47:48;;;;;;;4.97;2.55;;;;;;;;;;5067732;28;20055;-59
2023/08/02 11:50:22;;;;;;;3.90;1.67;;;;;;;;;;5067336;28;20044;-60
2023/08/02 11:52:49;;;;;;;5.45;1.92;;;;;;;;;;5071582;28;20048;-59
2023/08/02 11:55:15;;;;;;;3.33;1.63;;;;;;;;;;5046833;28;20084;-60
2023/08/02 11:57:42;;;;;;;4.43;1.80;;;;;;;;;;5068546;28;20049;-58
2023/08/02 12:00:09;;;;;;;4.05;2.17;;;;;;;;;;5068190;28;20427;-60
2023/08/02 12:02:35;;;;;;;5.35;2.03;;;;;;;;;;5067970;28;20087;-58
2023/08/02 12:05:05;;;;;;;8.40;2.08;;;;;;;;;;5047897;28;20048;-59
2023/08/02 12:07:33;;;;;;;3.78;1.90;;;;;;;;;;5066766;28;20500;-59
2023/08/02 12:10:01;;;;;;;7.43;2.00;;;;;;;;;;5067139;28;20063;-59
2023/08/02 12:12:31;;;;;;;5.15;1.98;;;;;;;;;;5064264;28;20040;-60
2023/08/02 12:14:58;;;;;;;6.87;1.77;;;;;;;;;;5066357;28;20127;-60
2023/08/02 12:17:24;;;;;;;6.47;2.15;;;;;;;;;;5067186;28;20080;-61
2023/08/02 12:19:51;;;;;;;5.43;2.28;;;;;;;;;;5067398;28;20483;-60
2023/08/02 12:22:18;;;;;;;5.20;2.13;;;;;;;;;;5067118;28;20696;-61
2023/08/02 12:25:02;;;;;;;4.93;1.83;;;;;;;;;;5066664;28;20106;-61
2023/08/02 12:27:29;;;;;;;5.97;2.40;;;;;;;;;;5066413;28;20102;-61
2023/08/02 12:30:07;;;;;;;3.53;1.95;;;;;;;;;;5061114;28;20135;-60
2023/08/02 12:32:35;;;;;;;3.42;1.73;;;;;;;;;;5082087;28;20052;-59
2023/08/02 12:35:06;;;;;;;5.55;2.28;;;;;;;;;;5060398;28;20044;-59
2023/08/02 12:37:40;;;;;;;5.22;2.20;;;;;;;;;;5056874;28;20056;-58
2023/08/02 12:40:07;;;;;;;5.05;2.08;;;;;;;;;;5058268;28;20092;-59
2023/08/02 12:42:33;;;;;;;5.03;2.28;;;;;;;;;;5038834;28;20044;-58
2023/08/02 12:45:11;;;;;;;4.28;2.22;;;;;;;;;;5054646;28;20526;-59
2023/08/02 12:47:43;;;;;;;6.57;3.22;;;;;;;;;;5057780;28;20048;-59
2023/08/02 12:50:11;;;;;;;4.57;2.00;;;;;;;;;;5060272;28;20075;-59
2023/08/02 12:52:37;;;;;;;5.80;2.03;;;;;;;;;;5059398;28;20041;-59
2023/08/02 12:55:04;;;;;;;3.97;2.05;;;;;;;;;;5058872;28;20113;-58
2023/08/02 12:57:30;;;;;;;8.07;1.88;;;;;;;;;;5056279;28;20159;-59
2023/08/02 12:59:59;;;;;;;4.55;2.17;;;;;;;;;;5059661;28;20044;-59
2023/08/02 13:02:26;;;;;;;3.92;1.85;;;;;;;;;;5057852;28;20554;-60
2023/08/02 13:04:52;;;;;;;4.97;2.28;;;;;;;;;;5057694;28;20492;-60
2023/08/02 13:07:19;;;;;;;7.63;2.35;;;;;;;;;;5057869;28;20049;-60
2023/08/02 13:09:45;;;;;;;4.90;2.10;;;;;;;;;;5056756;28;20144;-61
2023/08/02 13:12:12;;;;;;;4.05;1.92;;;;;;;;;;5059244;28;20045;-60
2023/08/02 13:14:43;;;;;;;3.35;1.80;;;;;;;;;;5058503;28;20056;-60
2023/08/02 13:17:13;;;;;;;8.40;2.42;;;;;;;;;;5070467;28;20051;-59
2023/08/02 13:19:39;;;;;;;4.78;2.33;;;;;;;;;;5048881;28;20123;-60
2023/08/02 13:22:06;;;;;;;7.60;2.53;;;;;;;;;;5044954;28;20207;-60
2023/08/02 13:24:32;;;;;;;7.28;2.05;;;;;;;;;;5055788;28;20056;-59
2023/08/02 13:26:59;;;;;;;5.82;2.88;;;;;;;;;;5045326;28;20079;-60
2023/08/02 13:29:26;;;;;;;3.88;2.00;;;;;;;;;;5058269;28;20143;-61
2023/08/02 13:31:52;;;;;;;4.47;1.90;;;;;;;;;;5056272;28;20050;-59
2023/08/02 13:34:19;;;;;;;5.15;1.83;;;;;;;;;;5056139;28;20483;-61
2023/08/02 13:36:46;;;;;;;4.15;2.85;;;;;;;;;;5037428;28;20044;-60
2023/08/02 13:39:13;;;;;;;5.13;2.05;;;;;;;;;;5057083;28;20044;-61
2023/08/02 13:41:39;;;;;;;4.88;1.98;;;;;;;;;;5056329;28;20139;-59
2023/08/02 13:44:06;;;;;;;6.47;1.70;;;;;;;;;;5057648;28;20044;-62
2023/08/02 13:46:33;;;;;;;3.13;1.50;;;;;;;;;;5056396;28;20145;-59
2023/08/02 13:49:00;;;;;;;4.57;2.00;;;;;;;;;;5055948;28;20089;-59
2023/08/02 13:51:27;;;;;;;3.67;1.77;;;;;;;;;;5061575;28;20052;-61
2023/08/02 13:53:53;;;;;;;4.78;1.67;;;;;;;;;;5068683;28;20060;-62
2023/08/02 13:56:20;;;;;;;6.30;2.20;;;;;;;;;;5068087;28;20479;-61
2023/08/02 13:58:46;;;;;;;5.03;2.00;;;;;;;;;;5051839;28;20132;-61
2023/08/02 14:01:14;;;;;;;4.80;1.58;;;;;;;;;;5068332;28;20041;-61
2023/08/02 14:03:41;;;;;;;5.10;1.80;;;;;;;;;;5068663;28;20044;-61
2023/08/02 14:06:07;;;;;;;5.18;1.63;;;;;;;;;;5063206;28;20195;-61
2023/08/02 14:08:34;;;;;;;6.35;2.25;;;;;;;;;;5059712;28;20426;-60
2023/08/02 14:11:03;;;;;;;3.80;1.83;;;;;;;;;;5068307;28;20052;-61
2023/08/02 14:13:31;;;;;;;5.30;1.63;;;;;;;;;;5070129;28;20824;-60
2023/08/02 14:15:59;;;;;;;4.47;2.08;;;;;;;;;;5050275;28;20036;-61
2023/08/02 14:18:26;;;;;;;3.95;2.10;;;;;;;;;;5069877;28;20040;-61
2023/08/02 14:20:52;;;;;;;7.28;1.67;;;;;;;;;;5068148;28;20064;-60
2023/08/02 14:23:19;;;;;;;7.47;2.40;;;;;;;;;;5069412;28;20055;-61
2023/08/02 14:25:45;;;;;;;4.15;1.92;;;;;;;;;;5064281;28;20068;-61
2023/08/02 14:28:12;;;;;;;15.60;2.55;;;;;;;;;;5069527;28;20127;-62
2023/08/02 14:30:38;;;;;;;4.80;1.60;;;;;;;;;;5069279;28;20040;-62
2023/08/02 14:33:04;;;;;;;5.65;2.00;;;;;;;;;;5068973;28;20051;-63
2023/08/02 14:35:31;;;;;;;4.00;1.65;;;;;;;;;;5068124;28;20147;-61
2023/08/02 14:37:59;;;;;;;3.50;1.77;;;;;;;;;;5069094;28;20073;-62
2023/08/02 14:40:25;;;;;;;4.85;1.85;;;;;;;;;;5068884;28;20052;-59
2023/08/02 14:42:52;;;;;;;4.72;1.65;;;;;;;;;;5067697;28;20520;-59
2023/08/02 14:45:18;;;;;;;6.43;1.98;;;;;;;;;;5063555;28;20051;-59